createdAt,value
2022-07-30T00:06:47.333Z,1015.65
2022-07-30T00:16:47.584Z,1015.63
2022-07-30T00:26:47.749Z,1015.74
2022-07-30T00:36:47.952Z,1015.70
2022-07-30T00:46:48.176Z,1015.70
2022-07-30T00:56:48.320Z,1015.70
2022-07-30T01:06:48.557Z,1015.77
2022-07-30T01:16:48.850Z,1015.78
2022-07-30T01:26:48.932Z,1015.77
2022-07-30T01:36:49.163Z,1015.75
2022-07-30T01:46:49.388Z,1015.74
2022-07-30T01:56:49.623Z,1015.81
2022-07-30T02:06:49.723Z,1015.90
2022-07-30T02:16:49.900Z,1015.86
2022-07-30T02:26:50.011Z,1015.79
2022-07-30T02:36:50.051Z,1015.65
2022-07-30T02:46:50.332Z,1015.77
2022-07-30T02:56:50.563Z,1015.76
2022-07-30T03:06:50.624Z,1015.74
2022-07-30T03:16:50.851Z,1015.72
2022-07-30T03:26:50.913Z,1015.76
2022-07-30T03:36:51.129Z,1015.77
2022-07-30T03:46:51.393Z,1015.89
2022-07-30T03:56:51.685Z,1016.00
2022-07-30T04:06:52.087Z,1016.08
2022-07-30T04:16:51.985Z,1016.18
2022-07-30T04:26:52.046Z,1016.18
2022-07-30T04:36:52.253Z,1016.25
2022-07-30T04:46:52.518Z,1016.32
2022-07-30T04:56:54.007Z,1016.37
2022-07-30T05:06:52.800Z,1016.40
2022-07-30T05:16:53.054Z,1016.54
2022-07-30T05:26:53.339Z,1016.71
2022-07-30T05:36:53.387Z,1016.76
2022-07-30T05:46:53.448Z,1016.72
2022-07-30T05:56:53.703Z,1016.69
2022-07-30T06:06:53.945Z,1016.80
2022-07-30T06:16:54.343Z,1016.93
2022-07-30T06:26:54.382Z,1017.05
2022-07-30T06:36:54.549Z,1017.09
2022-07-30T06:46:54.785Z,1017.15
2022-07-30T06:56:55.045Z,1017.16
2022-07-30T07:06:56.191Z,1017.20
2022-07-30T07:16:55.495Z,1017.20
2022-07-30T07:26:55.545Z,1017.27
2022-07-30T07:36:55.800Z,1017.27
2022-07-30T07:46:56.061Z,1017.29
2022-07-30T07:56:57.303Z,1017.34
2022-07-30T08:06:56.546Z,1017.31
2022-07-30T08:16:56.842Z,1017.38
2022-07-30T08:26:56.925Z,1017.33
2022-07-30T08:36:57.188Z,1017.36
2022-07-30T08:46:57.409Z,1017.30
2022-07-30T08:56:57.695Z,1017.24
2022-07-30T09:06:57.787Z,1017.18
2022-07-30T09:16:57.892Z,1017.14
2022-07-30T09:26:57.933Z,1017.16
2022-07-30T09:36:58.213Z,1016.94
2022-07-30T09:46:58.505Z,1016.90
2022-07-30T09:57:01.904Z,1016.99
2022-07-30T10:06:58.655Z,1016.96
2022-07-30T10:16:58.787Z,1016.94
2022-07-30T10:26:59.235Z,1016.88
2022-07-30T10:36:59.186Z,1016.83
2022-07-30T10:46:59.572Z,1016.77
2022-07-30T10:57:00.497Z,1016.73
2022-07-30T11:06:59.414Z,1016.82
2022-07-30T11:16:59.739Z,1016.81
2022-07-30T11:27:00.407Z,1016.79
2022-07-30T11:36:59.901Z,1016.69
2022-07-30T11:47:00.227Z,1016.82
2022-07-30T11:57:04.373Z,1016.90
2022-07-30T12:07:00.673Z,1016.79
2022-07-30T12:17:00.963Z,1016.71
2022-07-30T12:27:01.130Z,1016.66
2022-07-30T12:37:01.321Z,1016.85
2022-07-30T12:47:01.560Z,1016.94
2022-07-30T12:57:01.992Z,1016.96
2022-07-30T13:07:01.897Z,1016.93
2022-07-30T13:17:02.140Z,1016.88
2022-07-30T13:27:02.145Z,1016.87
2022-07-30T13:37:02.418Z,1017.00
2022-07-30T13:47:02.438Z,1017.11
2022-07-30T13:57:02.711Z,1016.95
2022-07-30T14:07:02.957Z,1016.92
2022-07-30T14:17:03.263Z,1016.82
2022-07-30T14:27:03.513Z,1016.65
2022-07-30T14:37:03.540Z,1016.46
2022-07-30T14:47:03.842Z,1016.58
2022-07-30T14:57:03.958Z,1016.53
2022-07-30T15:07:03.819Z,1016.38
2022-07-30T15:17:04.649Z,1016.31
2022-07-30T15:27:04.150Z,1016.17
2022-07-30T15:37:05.433Z,1016.20
2022-07-30T15:47:04.735Z,1016.20
2022-07-30T15:57:04.889Z,1016.20
2022-07-30T16:07:05.261Z,1016.03
2022-07-30T16:17:05.190Z,1015.99
2022-07-30T16:27:05.264Z,1016.14
2022-07-30T16:37:05.478Z,1016.09
2022-07-30T16:47:05.647Z,1016.02
2022-07-30T16:57:08.336Z,1015.95
2022-07-30T17:07:06.858Z,1016.01
2022-07-30T17:17:07.218Z,1016.06
2022-07-30T17:27:06.149Z,1016.14
2022-07-30T17:37:06.253Z,1016.09
2022-07-30T17:47:08.004Z,1016.21
2022-07-30T17:57:07.451Z,1016.21
2022-07-30T18:07:06.751Z,1016.27
2022-07-30T18:17:09.046Z,1016.21
2022-07-30T18:27:07.706Z,1016.30
2022-07-30T18:37:06.766Z,1016.34
2022-07-30T18:47:07.055Z,1016.32
2022-07-30T18:57:10.116Z,1016.46
2022-07-30T19:07:08.355Z,1016.44
2022-07-30T19:17:14.176Z,1016.58
2022-07-30T19:27:13.707Z,1016.67
2022-07-30T19:37:09.076Z,1016.75
2022-07-30T19:47:08.309Z,1016.80
2022-07-30T19:57:08.537Z,1016.90
2022-07-30T20:07:08.754Z,1017.00
2022-07-30T20:17:13.114Z,1016.98
2022-07-30T20:27:36.275Z,1017.05
2022-07-30T20:47:10.229Z,1017.09
2022-07-30T20:57:15.809Z,1017.12
2022-07-30T21:07:10.637Z,1017.13
2022-07-30T21:17:09.946Z,1017.18
2022-07-30T21:27:10.085Z,1017.21
2022-07-30T21:37:10.417Z,1017.34
2022-07-30T21:47:10.852Z,1017.33
2022-07-30T21:57:11.587Z,1017.37
2022-07-30T22:07:10.815Z,1017.35
2022-07-30T22:17:19.253Z,1017.45
2022-07-30T22:27:14.702Z,1017.50
2022-07-30T22:37:12.902Z,1017.55
2022-07-30T22:47:21.828Z,1017.46
2022-07-30T22:57:14.847Z,1017.48
2022-07-30T23:07:13.994Z,1017.52
2022-07-30T23:12:18.962Z,1017.05
2022-07-30T23:17:12.961Z,1017.50
2022-07-30T23:27:13.249Z,1017.51
2022-07-30T23:37:14.760Z,1017.41
2022-07-30T23:47:12.773Z,1017.42
2022-07-30T23:57:12.616Z,1017.39
